Terminal Aerodrome Forecast
Issued by NWS

Home | Current Version | Previous Version | Text Only | Print | Product List | Glossary On
Versions: 1 2 3 4 5 6 7 8 9 10 11 12 13 14 15 16
000
FTAK31 PAFA 181126
TAFAOM
TAF
PAOM 181126Z 1812/1912 34009KT P6SM SCT070 SCT210
     FM181600 03005KT P6SM BKN100
     FM190300 06007KT P6SM BKN050=

USA.gov is the U.S. government's official web portal to all federal, state and local government web resources and services.